Time,TemperatureF,DewpointF,PressureIn,WindDirection,WindDirectionDegrees,WindSpeedMPH,WindSpeedGustMPH,Humidity,HourlyPrecipIn,Conditions,Clouds,dailyrainin,SoftwareType,DateUTC
2013-01-12 00:04:00,43.0,4.6,30.00,North,-999,0.0,0.0,20,0.00,,,-99.99,FreeWX-Wi 1.02,2013-01-12 08:04:00,
2013-01-12 00:09:00,43.0,4.6,30.00,North,-999,0.0,0.0,20,0.00,,,-99.99,FreeWX-Wi 1.02,2013-01-12 08:09:00,
2013-01-12 00:14:00,43.2,4.8,30.00,North,-999,0.0,3.1,20,0.00,,,-99.99,FreeWX-Wi 1.02,2013-01-12 08:14:00,
2013-01-12 00:19:00,43.3,5.0,30.00,North,-999,0.0,3.1,20,0.00,,,-99.99,FreeWX-Wi 1.02,2013-01-12 08:19:00,
2013-01-12 00:24:00,43.5,5.2,30.00,North,-999,0.0,3.1,20,0.00,,,-99.99,FreeWX-Wi 1.02,2013-01-12 08:24:00,
2013-01-12 00:29:00,43.7,5.4,30.00,North,-999,0.0,4.0,20,0.00,,,-99.99,FreeWX-Wi 1.02,2013-01-12 08:29:00,
2013-01-12 00:34:00,43.7,5.4,30.00,North,-999,0.0,4.0,20,0.00,,,-99.99,FreeWX-Wi 1.02,2013-01-12 08:34:00,
2013-01-12 00:39:00,43.5,5.2,30.00,WNW,292,1.0,3.1,20,0.00,,,-99.99,FreeWX-Wi 1.02,2013-01-12 08:39:00,
2013-01-12 00:44:00,43.7,5.4,29.97,WNW,295,1.0,4.0,20,0.00,,,-99.99,FreeWX-Wi 1.02,2013-01-12 08:44:00,
2013-01-12 00:49:00,43.7,5.4,29.97,WNW,299,1.0,3.1,20,0.00,,,-99.99,FreeWX-Wi 1.02,2013-01-12 08:49:00,
2013-01-12 00:54:00,43.7,5.4,29.97,WNW,302,1.0,2.7,20,0.00,,,-99.99,FreeWX-Wi 1.02,2013-01-12 08:54:00,
2013-01-12 00:59:00,43.9,5.4,30.00,NW,305,1.0,5.4,20,0.00,,,-99.99,FreeWX-Wi 1.02,2013-01-12 08:59:00,
2013-01-12 01:04:00,44.2,5.7,30.00,NW,313,2.0,6.3,20,0.00,,,-99.99,FreeWX-Wi 1.02,2013-01-12 09:04:00,
2013-01-12 01:09:00,44.6,6.1,30.00,NW,320,2.0,7.6,20,0.00,,,-99.99,FreeWX-Wi 1.02,2013-01-12 09:09:00,
2013-01-12 01:14:00,45.3,6.6,30.00,NNW,330,3.0,12.3,20,0.00,,,-99.99,FreeWX-Wi 1.02,2013-01-12 09:14:00,
2013-01-12 01:19:00,45.1,6.4,30.00,NNW,339,3.0,4.9,20,0.00,,,-99.99,FreeWX-Wi 1.02,2013-01-12 09:19:00,
2013-01-12 01:24:00,45.1,6.4,30.00,North,351,4.0,8.7,20,0.00,,,-99.99,FreeWX-Wi 1.02,2013-01-12 09:24:00,
2013-01-12 01:29:00,45.1,6.4,30.00,North,5,4.0,8.7,20,0.00,,,-99.99,FreeWX-Wi 1.02,2013-01-12 09:29:00,
2013-01-12 01:34:00,45.1,6.4,30.00,NNE,14,4.0,8.1,20,0.00,,,-99.99,FreeWX-Wi 1.02,2013-01-12 09:34:00,
2013-01-12 01:39:00,44.8,6.3,30.00,NNE,23,5.0,10.5,20,0.00,,,-99.99,FreeWX-Wi 1.02,2013-01-12 09:39:00,
2013-01-12 01:44:00,44.4,5.9,30.00,NNE,30,5.0,8.7,20,0.00,,,-99.99,FreeWX-Wi 1.02,2013-01-12 09:44:00,
2013-01-12 01:49:00,44.1,5.5,30.00,NE,41,6.0,12.8,20,0.00,,,-99.99,FreeWX-Wi 1.02,2013-01-12 09:49:00,
2013-01-12 01:54:00,43.9,5.4,30.00,NE,46,6.0,10.5,20,0.00,,,-99.99,FreeWX-Wi 1.02,2013-01-12 09:54:00,
2013-01-12 01:59:00,43.9,5.4,30.00,NE,46,6.0,11.0,20,0.00,,,-99.99,FreeWX-Wi 1.02,2013-01-12 09:59:00,
2013-01-12 02:04:00,43.9,5.4,30.00,NE,45,7.0,11.4,20,0.00,,,-99.99,FreeWX-Wi 1.02,2013-01-12 10:04:00,
2013-01-12 02:09:00,43.9,5.4,30.00,NE,47,7.0,10.1,20,0.00,,,-99.99,FreeWX-Wi 1.02,2013-01-12 10:09:00,
2013-01-12 02:14:00,44.1,5.5,30.00,NE,47,7.0,10.5,20,0.00,,,-99.99,FreeWX-Wi 1.02,2013-01-12 10:14:00,
2013-01-12 02:19:00,44.1,5.5,30.00,NE,45,7.0,11.0,20,0.00,,,-99.99,FreeWX-Wi 1.02,2013-01-12 10:19:00,
2013-01-12 02:24:00,43.9,5.4,30.00,NE,47,7.0,10.1,20,0.00,,,-99.99,FreeWX-Wi 1.02,2013-01-12 10:24:00,
2013-01-12 02:29:00,43.7,5.4,30.00,NE,53,6.0,7.6,20,0.00,,,-99.99,FreeWX-Wi 1.02,2013-01-12 10:29:00,
2013-01-12 02:34:00,43.7,5.4,30.00,NE,56,6.0,6.0,20,0.00,,,-99.99,FreeWX-Wi 1.02,2013-01-12 10:34:00,
2013-01-12 02:39:00,43.3,5.0,30.00,ENE,62,5.0,5.8,20,0.00,,,-99.99,FreeWX-Wi 1.02,2013-01-12 10:39:00,
2013-01-12 02:44:00,43.0,4.6,30.00,ENE,68,4.0,4.0,20,0.00,,,-99.99,FreeWX-Wi 1.02,2013-01-12 10:44:00,
2013-01-12 02:49:00,42.4,5.4,30.00,ENE,73,3.0,3.6,21,0.00,,,-99.99,FreeWX-Wi 1.02,2013-01-12 10:49:00,
2013-01-12 02:54:00,41.7,4.6,30.00,ENE,76,2.0,4.0,21,0.00,,,-99.99,FreeWX-Wi 1.02,2013-01-12 10:54:00,
2013-01-12 02:59:00,41.4,4.5,30.00,ENE,77,2.0,4.0,21,0.00,,,-99.99,FreeWX-Wi 1.02,2013-01-12 10:59:00,
2013-01-12 03:04:00,40.6,3.7,30.00,East,79,1.0,0.0,21,0.00,,,-99.99,FreeWX-Wi 1.02,2013-01-12 11:04:00,
2013-01-12 03:09:00,40.3,3.6,30.00,North,-999,0.0,0.0,21,0.00,,,-99.99,FreeWX-Wi 1.02,2013-01-12 11:09:00,
2013-01-12 03:14:00,40.3,3.6,30.00,North,-999,0.0,0.0,21,0.00,,,-99.99,FreeWX-Wi 1.02,2013-01-12 11:14:00,
2013-01-12 03:19:00,39.9,3.2,30.00,North,-999,0.0,0.0,21,0.00,,,-99.99,FreeWX-Wi 1.02,2013-01-12 11:19:00,
2013-01-12 03:24:00,39.4,2.7,30.00,North,-999,0.0,0.0,21,0.00,,,-99.99,FreeWX-Wi 1.02,2013-01-12 11:24:00,
2013-01-12 03:29:00,39.4,2.7,30.00,North,-999,0.0,2.2,21,0.00,,,-99.99,FreeWX-Wi 1.02,2013-01-12 11:29:00,
2013-01-12 03:34:00,39.2,2.7,30.00,North,-999,0.0,2.2,21,0.00,,,-99.99,FreeWX-Wi 1.02,2013-01-12 11:34:00,
2013-01-12 03:39:00,38.8,2.3,30.00,North,-999,0.0,0.0,21,0.00,,,-99.99,FreeWX-Wi 1.02,2013-01-12 11:39:00,
2013-01-12 03:44:00,37.9,1.6,30.00,North,-999,0.0,0.0,21,0.00,,,-99.99,FreeWX-Wi 1.02,2013-01-12 11:44:00,
2013-01-12 03:49:00,37.4,1.0,30.00,North,-999,0.0,0.0,21,0.00,,,-99.99,FreeWX-Wi 1.02,2013-01-12 11:49:00,
2013-01-12 03:54:00,37.0,3.6,30.00,North,-999,0.0,0.0,24,0.00,,,-99.99,FreeWX-Wi 1.02,2013-01-12 11:54:00,
2013-01-12 03:59:00,36.9,1.6,30.00,North,-999,0.0,0.0,22,0.00,,,-99.99,FreeWX-Wi 1.02,2013-01-12 11:59:00,
2013-01-12 04:04:00,36.3,1.2,30.00,North,-999,0.0,0.0,22,0.00,,,-99.99,FreeWX-Wi 1.02,2013-01-12 12:04:00,
2013-01-12 04:09:00,36.0,2.7,30.00,North,-999,0.0,0.0,24,0.00,,,-99.99,FreeWX-Wi 1.02,2013-01-12 12:09:00,
2013-01-12 04:14:00,35.8,2.5,30.00,North,-999,0.0,0.0,24,0.00,,,-99.99,FreeWX-Wi 1.02,2013-01-12 12:14:00,
2013-01-12 04:19:00,35.6,2.5,30.00,North,-999,0.0,0.0,24,0.00,,,-99.99,FreeWX-Wi 1.02,2013-01-12 12:19:00,
2013-01-12 04:24:00,35.1,2.8,30.00,North,-999,0.0,0.0,25,0.00,,,-99.99,FreeWX-Wi 1.02,2013-01-12 12:24:00,
2013-01-12 04:29:00,35.6,2.5,30.00,North,-999,0.0,4.0,24,0.00,,,-99.99,FreeWX-Wi 1.02,2013-01-12 12:29:00,
2013-01-12 04:34:00,35.4,3.2,30.00,North,-999,0.0,3.1,25,0.00,,,-99.99,FreeWX-Wi 1.02,2013-01-12 12:34:00,
2013-01-12 04:39:00,35.1,2.8,30.00,North,-999,0.0,2.2,25,0.00,,,-99.99,FreeWX-Wi 1.02,2013-01-12 12:39:00,
2013-01-12 04:44:00,35.1,4.5,30.00,North,-999,0.0,0.0,27,0.00,,,-99.99,FreeWX-Wi 1.02,2013-01-12 12:44:00,
2013-01-12 04:49:00,35.4,4.8,30.00,North,-999,0.0,5.8,27,0.00,,,-99.99,FreeWX-Wi 1.02,2013-01-12 12:49:00,
2013-01-12 04:54:00,35.8,2.5,30.00,ENE,68,1.0,3.6,24,0.00,,,-99.99,FreeWX-Wi 1.02,2013-01-12 12:54:00,
2013-01-12 04:59:00,35.2,3.0,30.03,NE,55,1.0,4.9,25,0.00,,,-99.99,FreeWX-Wi 1.02,2013-01-12 12:59:00,
2013-01-12 05:04:00,35.1,2.8,30.03,North,-999,0.0,0.0,25,0.00,,,-99.99,FreeWX-Wi 1.02,2013-01-12 13:04:00,
2013-01-12 05:09:00,35.4,3.2,30.03,North,-999,0.0,4.0,25,0.00,,,-99.99,FreeWX-Wi 1.02,2013-01-12 13:09:00,
2013-01-12 05:14:00,35.4,3.2,30.03,North,-999,0.0,3.6,25,0.00,,,-99.99,FreeWX-Wi 1.02,2013-01-12 13:14:00,
2013-01-12 05:19:00,35.1,2.8,30.03,North,-999,0.0,0.0,25,0.00,,,-99.99,FreeWX-Wi 1.02,2013-01-12 13:19:00,
2013-01-12 05:24:00,34.9,2.7,30.03,North,-999,0.0,3.6,25,0.00,,,-99.99,FreeWX-Wi 1.02,2013-01-12 13:24:00,
2013-01-12 05:29:00,34.9,2.7,30.03,North,-999,0.0,3.6,25,0.00,,,-99.99,FreeWX-Wi 1.02,2013-01-12 13:29:00,
2013-01-12 05:34:00,34.3,2.3,30.03,North,-999,0.0,2.7,25,0.00,,,-99.99,FreeWX-Wi 1.02,2013-01-12 13:34:00,
2013-01-12 05:39:00,34.9,2.7,30.03,North,-999,0.0,5.4,25,0.00,,,-99.99,FreeWX-Wi 1.02,2013-01-12 13:39:00,
2013-01-12 05:44:00,34.5,2.3,30.03,North,-999,0.0,2.7,25,0.00,,,-99.99,FreeWX-Wi 1.02,2013-01-12 13:44:00,
2013-01-12 05:49:00,34.9,2.7,30.03,NNW,327,1.0,4.0,25,0.00,,,-99.99,FreeWX-Wi 1.02,2013-01-12 13:49:00,
2013-01-12 05:54:00,34.3,2.3,30.03,NNW,337,1.0,2.2,25,0.00,,,-99.99,FreeWX-Wi 1.02,2013-01-12 13:54:00,
2013-01-12 05:59:00,34.5,2.3,30.06,North,349,1.0,3.6,25,0.00,,,-99.99,FreeWX-Wi 1.02,2013-01-12 13:59:00,
2013-01-12 06:04:00,34.0,3.6,30.06,North,358,1.0,0.0,27,0.00,,,-99.99,FreeWX-Wi 1.02,2013-01-12 14:04:00,
2013-01-12 06:09:00,34.5,2.3,30.06,North,2,1.0,4.0,25,0.00,,,-99.99,FreeWX-Wi 1.02,2013-01-12 14:09:00,
2013-01-12 06:14:00,34.3,2.3,30.06,North,3,1.0,3.6,25,0.00,,,-99.99,FreeWX-Wi 1.02,2013-01-12 14:14:00,
2013-01-12 06:19:00,33.6,1.6,30.06,North,4,1.0,4.9,25,0.00,,,-99.99,FreeWX-Wi 1.02,2013-01-12 14:19:00,
2013-01-12 06:24:00,34.0,1.9,30.06,North,6,1.0,4.9,25,0.00,,,-99.99,FreeWX-Wi 1.02,2013-01-12 14:24:00,
2013-01-12 06:29:00,33.6,1.6,30.09,North,10,1.0,3.6,25,0.00,,,-99.99,FreeWX-Wi 1.02,2013-01-12 14:29:00,
2013-01-12 06:34:00,32.7,0.9,30.09,NNE,14,1.0,0.0,25,0.00,,,-99.99,FreeWX-Wi 1.02,2013-01-12 14:34:00,
2013-01-12 06:39:00,32.5,0.7,30.09,North,-999,0.0,0.0,25,0.00,,,-99.99,FreeWX-Wi 1.02,2013-01-12 14:39:00,
2013-01-12 06:44:00,32.2,0.3,30.09,North,-999,0.0,0.0,25,0.00,,,-99.99,FreeWX-Wi 1.02,2013-01-12 14:44:00,
2013-01-12 06:49:00,31.6,0.0,30.09,North,-999,0.0,0.0,25,0.00,,,-99.99,FreeWX-Wi 1.02,2013-01-12 14:49:00,
2013-01-12 06:54:00,31.8,2.5,30.09,North,-999,0.0,3.1,28,0.00,,,-99.99,FreeWX-Wi 1.02,2013-01-12 14:54:00,
2013-01-12 06:59:00,31.8,0.1,30.09,North,-999,0.0,4.0,25,0.00,,,-99.99,FreeWX-Wi 1.02,2013-01-12 14:59:00,
2013-01-12 07:04:00,31.8,0.1,30.09,NE,38,1.0,3.6,25,0.00,,,-99.99,FreeWX-Wi 1.02,2013-01-12 15:04:00,
2013-01-12 07:09:00,32.2,0.3,30.09,NE,42,1.0,3.1,25,0.00,,,-99.99,FreeWX-Wi 1.02,2013-01-12 15:09:00,
2013-01-12 07:14:00,32.5,0.7,30.12,NE,46,1.0,0.0,25,0.00,,,-99.99,FreeWX-Wi 1.02,2013-01-12 15:14:00,
2013-01-12 07:19:00,32.9,1.0,30.12,NE,50,1.0,0.0,25,0.00,,,-99.99,FreeWX-Wi 1.02,2013-01-12 15:19:00,
2013-01-12 07:24:00,33.4,1.4,30.12,North,-999,0.0,0.0,25,0.00,,,-99.99,FreeWX-Wi 1.02,2013-01-12 15:24:00,
2013-01-12 07:29:00,33.8,1.8,30.12,North,-999,0.0,0.0,25,0.00,,,-99.99,FreeWX-Wi 1.02,2013-01-12 15:29:00,
2013-01-12 07:34:00,34.2,2.1,30.12,North,-999,0.0,0.0,25,0.00,,,-99.99,FreeWX-Wi 1.02,2013-01-12 15:34:00,
2013-01-12 07:39:00,34.5,2.3,30.12,North,-999,0.0,0.0,25,0.00,,,-99.99,FreeWX-Wi 1.02,2013-01-12 15:39:00,
2013-01-12 07:44:00,35.6,0.5,30.12,North,-999,0.0,4.5,22,0.00,,,-99.99,FreeWX-Wi 1.02,2013-01-12 15:44:00,
2013-01-12 07:49:00,36.7,1.4,30.12,North,-999,0.0,6.7,22,0.00,,,-99.99,FreeWX-Wi 1.02,2013-01-12 15:49:00,
2013-01-12 07:54:00,36.5,1.4,30.12,NE,47,1.0,5.8,22,0.00,,,-99.99,FreeWX-Wi 1.02,2013-01-12 15:54:00,
2013-01-12 07:59:00,36.5,1.4,30.12,NNE,23,1.0,4.0,22,0.00,,,-99.99,FreeWX-Wi 1.02,2013-01-12 15:59:00,
2013-01-12 08:04:00,36.7,1.4,30.12,NW,324,1.0,4.0,22,0.00,,,-99.99,FreeWX-Wi 1.02,2013-01-12 16:04:00,
2013-01-12 08:09:00,37.4,1.0,30.12,WNW,286,1.0,2.2,21,0.00,,,-99.99,FreeWX-Wi 1.02,2013-01-12 16:09:00,
2013-01-12 08:14:00,37.8,1.4,30.12,West,275,1.0,3.1,21,0.00,,,-99.99,FreeWX-Wi 1.02,2013-01-12 16:14:00,
2013-01-12 08:19:00,38.7,2.1,30.12,West,271,1.0,0.0,21,0.00,,,-99.99,FreeWX-Wi 1.02,2013-01-12 16:19:00,
2013-01-12 08:24:00,39.2,2.7,30.12,North,-999,0.0,3.1,21,0.00,,,-99.99,FreeWX-Wi 1.02,2013-01-12 16:24:00,
2013-01-12 08:29:00,39.7,3.0,30.12,North,-999,0.0,2.2,21,0.00,,,-99.99,FreeWX-Wi 1.02,2013-01-12 16:29:00,
2013-01-12 08:34:00,40.8,3.9,30.12,North,-999,0.0,0.0,21,0.00,,,-99.99,FreeWX-Wi 1.02,2013-01-12 16:34:00,
2013-01-12 08:39:00,42.1,5.0,30.12,West,264,1.0,8.3,21,0.00,,,-99.99,FreeWX-Wi 1.02,2013-01-12 16:39:00,
2013-01-12 08:44:00,42.3,5.2,30.15,WSW,257,1.0,6.3,21,0.00,,,-99.99,FreeWX-Wi 1.02,2013-01-12 16:44:00,
2013-01-12 08:49:00,42.1,5.0,30.15,WSW,254,2.0,3.6,21,0.00,,,-99.99,FreeWX-Wi 1.02,2013-01-12 16:49:00,
2013-01-12 08:54:00,42.3,5.2,30.15,WSW,252,2.0,4.0,21,0.00,,,-99.99,FreeWX-Wi 1.02,2013-01-12 16:54:00,
2013-01-12 08:59:00,42.8,4.5,30.12,WSW,249,2.0,3.1,20,0.00,,,-99.99,FreeWX-Wi 1.02,2013-01-12 16:59:00,
2013-01-12 09:04:00,43.3,5.0,30.12,WSW,246,2.0,4.0,20,0.00,,,-99.99,FreeWX-Wi 1.02,2013-01-12 17:04:00,
2013-01-12 09:09:00,43.9,5.4,30.12,WSW,249,2.0,4.0,20,0.00,,,-99.99,FreeWX-Wi 1.02,2013-01-12 17:09:00,
2013-01-12 09:14:00,44.6,6.1,30.12,WSW,254,2.0,4.0,20,0.00,,,-99.99,FreeWX-Wi 1.02,2013-01-12 17:14:00,
2013-01-12 09:19:00,45.3,6.6,30.12,WSW,250,2.0,5.4,20,0.00,,,-99.99,FreeWX-Wi 1.02,2013-01-12 17:19:00,
2013-01-12 09:24:00,45.3,6.6,30.12,SW,236,2.0,3.6,20,0.00,,,-99.99,FreeWX-Wi 1.02,2013-01-12 17:24:00,
2013-01-12 09:29:00,45.9,7.2,30.12,SW,218,2.0,4.9,20,0.00,,,-99.99,FreeWX-Wi 1.02,2013-01-12 17:29:00,
2013-01-12 09:34:00,46.0,7.2,30.12,SSW,194,2.0,4.0,20,0.00,,,-99.99,FreeWX-Wi 1.02,2013-01-12 17:34:00,
2013-01-12 09:39:00,46.6,6.6,30.12,SSE,168,2.0,5.8,19,0.00,,,-99.99,FreeWX-Wi 1.02,2013-01-12 17:39:00,
2013-01-12 09:44:00,46.9,6.8,30.12,SSE,152,2.0,4.5,19,0.00,,,-99.99,FreeWX-Wi 1.02,2013-01-12 17:44:00,
2013-01-12 09:49:00,47.3,7.2,30.12,SE,141,2.0,4.0,19,0.00,,,-99.99,FreeWX-Wi 1.02,2013-01-12 17:49:00,
2013-01-12 09:54:00,47.7,7.5,30.12,SE,142,2.0,5.8,19,0.00,,,-99.99,FreeWX-Wi 1.02,2013-01-12 17:54:00,
2013-01-12 09:59:00,47.7,7.5,30.12,SE,145,2.0,4.0,19,0.00,,,-99.99,FreeWX-Wi 1.02,2013-01-12 17:59:00,
2013-01-12 10:04:00,48.0,7.7,30.12,SSE,150,2.0,4.0,19,0.00,,,-99.99,FreeWX-Wi 1.02,2013-01-12 18:04:00,
2013-01-12 10:09:00,48.4,8.1,30.12,SSE,154,2.0,7.6,19,0.00,,,-99.99,FreeWX-Wi 1.02,2013-01-12 18:09:00,
2013-01-12 10:14:00,48.7,8.4,30.12,SSE,150,2.0,6.3,19,0.00,,,-99.99,FreeWX-Wi 1.02,2013-01-12 18:14:00,
2013-01-12 10:19:00,48.9,8.4,30.12,SSE,149,2.0,5.8,19,0.00,,,-99.99,FreeWX-Wi 1.02,2013-01-12 18:19:00,
2013-01-12 10:24:00,49.5,9.0,30.12,SSE,154,3.0,5.4,19,0.00,,,-99.99,FreeWX-Wi 1.02,2013-01-12 18:24:00,
2013-01-12 10:29:00,49.5,9.0,30.12,SSE,165,3.0,4.9,19,0.00,,,-99.99,FreeWX-Wi 1.02,2013-01-12 18:29:00,
2013-01-12 10:34:00,50.2,9.5,30.12,South,185,3.0,5.4,19,0.00,,,-99.99,FreeWX-Wi 1.02,2013-01-12 18:34:00,
2013-01-12 10:39:00,50.4,9.7,30.12,SSW,203,2.0,3.6,19,0.00,,,-99.99,FreeWX-Wi 1.02,2013-01-12 18:39:00,
2013-01-12 10:44:00,50.7,10.0,30.12,SSW,207,2.0,7.6,19,0.00,,,-99.99,FreeWX-Wi 1.02,2013-01-12 18:44:00,
2013-01-12 10:49:00,50.9,10.2,30.12,SW,219,2.0,7.6,19,0.00,,,-99.99,FreeWX-Wi 1.02,2013-01-12 18:49:00,
2013-01-12 10:54:00,51.1,10.2,30.12,SSW,213,2.0,5.4,19,0.00,,,-99.99,FreeWX-Wi 1.02,2013-01-12 18:54:00,
2013-01-12 10:59:00,50.9,10.2,30.12,SE,132,2.0,4.9,19,0.00,,,-99.99,FreeWX-Wi 1.02,2013-01-12 18:59:00,
2013-01-12 11:04:00,51.3,12.7,30.12,East,94,2.0,5.4,21,0.00,,,-99.99,FreeWX-Wi 1.02,2013-01-12 19:04:00,
2013-01-12 11:09:00,51.3,12.7,30.12,ENE,75,2.0,5.8,21,0.00,,,-99.99,FreeWX-Wi 1.02,2013-01-12 19:09:00,
2013-01-12 11:14:00,51.1,10.2,30.12,ENE,69,2.0,4.9,19,0.00,,,-99.99,FreeWX-Wi 1.02,2013-01-12 19:14:00,
2013-01-12 11:19:00,51.4,12.7,30.12,East,83,2.0,4.9,21,0.00,,,-99.99,FreeWX-Wi 1.02,2013-01-12 19:19:00,
2013-01-12 11:24:00,52.0,13.3,30.12,East,83,2.0,4.9,21,0.00,,,-99.99,FreeWX-Wi 1.02,2013-01-12 19:24:00,
2013-01-12 11:29:00,51.6,12.9,30.09,East,80,2.0,3.6,21,0.00,,,-99.99,FreeWX-Wi 1.02,2013-01-12 19:29:00,
2013-01-12 11:34:00,52.3,13.6,30.09,East,93,2.0,6.3,21,0.00,,,-99.99,FreeWX-Wi 1.02,2013-01-12 19:34:00,
2013-01-12 11:39:00,52.2,13.5,30.09,ESE,117,2.0,6.3,21,0.00,,,-99.99,FreeWX-Wi 1.02,2013-01-12 19:39:00,
2013-01-12 11:44:00,51.8,13.1,30.09,SE,146,2.0,5.4,21,0.00,,,-99.99,FreeWX-Wi 1.02,2013-01-12 19:44:00,
2013-01-12 11:49:00,52.0,13.3,30.09,SSE,166,2.0,3.1,21,0.00,,,-99.99,FreeWX-Wi 1.02,2013-01-12 19:49:00,
2013-01-12 11:54:00,52.5,13.8,30.09,SSW,205,2.0,5.8,21,0.00,,,-99.99,FreeWX-Wi 1.02,2013-01-12 19:54:00,
2013-01-12 11:59:00,52.3,13.6,30.09,SW,223,2.0,5.4,21,0.00,,,-99.99,FreeWX-Wi 1.02,2013-01-12 19:59:00,
2013-01-12 12:04:00,52.5,13.8,30.09,SW,235,1.0,4.0,21,0.00,,,-99.99,FreeWX-Wi 1.02,2013-01-12 20:04:00,
2013-01-12 12:09:00,53.1,14.2,30.09,WSW,238,1.0,5.8,21,0.00,,,-99.99,FreeWX-Wi 1.02,2013-01-12 20:09:00,
2013-01-12 12:14:00,53.2,14.4,30.09,SW,235,1.0,5.4,21,0.00,,,-99.99,FreeWX-Wi 1.02,2013-01-12 20:14:00,
2013-01-12 12:19:00,53.6,13.5,30.09,SW,236,2.0,5.4,20,0.00,,,-99.99,FreeWX-Wi 1.02,2013-01-12 20:19:00,
2013-01-12 12:24:00,53.6,13.5,30.09,WSW,245,2.0,5.4,20,0.00,,,-99.99,FreeWX-Wi 1.02,2013-01-12 20:24:00,
2013-01-12 12:29:00,54.1,14.0,30.06,West,261,2.0,4.0,20,0.00,,,-99.99,FreeWX-Wi 1.02,2013-01-12 20:29:00,
2013-01-12 12:34:00,54.5,14.2,30.06,West,268,2.0,8.1,20,0.00,,,-99.99,FreeWX-Wi 1.02,2013-01-12 20:34:00,
2013-01-12 12:39:00,54.3,14.2,30.06,West,278,2.0,4.9,20,0.00,,,-99.99,FreeWX-Wi 1.02,2013-01-12 20:39:00,
2013-01-12 12:44:00,53.6,13.5,30.06,WNW,297,2.0,5.4,20,0.00,,,-99.99,FreeWX-Wi 1.02,2013-01-12 20:44:00,
2013-01-12 12:49:00,54.3,14.2,30.06,WNW,298,2.0,6.3,20,0.00,,,-99.99,FreeWX-Wi 1.02,2013-01-12 20:49:00,
2013-01-12 12:54:00,54.7,14.4,30.06,WNW,286,3.0,7.6,20,0.00,,,-99.99,FreeWX-Wi 1.02,2013-01-12 20:54:00,
2013-01-12 12:59:00,55.0,14.7,30.06,West,274,3.0,8.7,20,0.00,,,-99.99,FreeWX-Wi 1.02,2013-01-12 20:59:00,
2013-01-12 13:04:00,55.2,14.9,30.06,West,273,3.0,5.8,20,0.00,,,-99.99,FreeWX-Wi 1.02,2013-01-12 21:04:00,
2013-01-12 13:09:00,55.9,15.4,30.06,West,267,3.0,7.6,20,0.00,,,-99.99,FreeWX-Wi 1.02,2013-01-12 21:09:00,
2013-01-12 13:14:00,55.9,15.4,30.06,WSW,256,4.0,6.3,20,0.00,,,-99.99,FreeWX-Wi 1.02,2013-01-12 21:14:00,
2013-01-12 13:19:00,56.3,15.8,30.06,WSW,250,4.0,8.3,20,0.00,,,-99.99,FreeWX-Wi 1.02,2013-01-12 21:19:00,
2013-01-12 13:24:00,56.1,15.6,30.06,WSW,244,4.0,6.3,20,0.00,,,-99.99,FreeWX-Wi 1.02,2013-01-12 21:24:00,
2013-01-12 13:29:00,55.6,15.1,30.06,SW,230,3.0,7.2,20,0.00,,,-99.99,FreeWX-Wi 1.02,2013-01-12 21:29:00,
2013-01-12 13:34:00,56.3,15.8,30.06,SW,216,3.0,3.6,20,0.00,,,-99.99,FreeWX-Wi 1.02,2013-01-12 21:34:00,
2013-01-12 13:39:00,56.3,15.8,30.06,SW,216,3.0,8.1,20,0.00,,,-99.99,FreeWX-Wi 1.02,2013-01-12 21:39:00,
2013-01-12 13:44:00,57.2,15.3,30.06,SSW,209,3.0,6.3,19,0.00,,,-99.99,FreeWX-Wi 1.02,2013-01-12 21:44:00,
2013-01-12 13:49:00,56.5,16.0,30.06,SSW,211,3.0,7.6,20,0.00,,,-99.99,FreeWX-Wi 1.02,2013-01-12 21:49:00,
2013-01-12 13:54:00,56.5,16.0,30.06,SSW,207,3.0,5.4,20,0.00,,,-99.99,FreeWX-Wi 1.02,2013-01-12 21:54:00,
2013-01-12 13:59:00,56.7,16.0,30.06,SSW,205,3.0,5.8,20,0.00,,,-99.99,FreeWX-Wi 1.02,2013-01-12 21:59:00,
2013-01-12 14:04:00,57.0,16.3,30.06,SW,215,3.0,7.6,20,0.00,,,-99.99,FreeWX-Wi 1.02,2013-01-12 22:04:00,
2013-01-12 14:09:00,57.2,15.3,30.06,SSW,207,3.0,6.3,19,0.00,,,-99.99,FreeWX-Wi 1.02,2013-01-12 22:09:00,
2013-01-12 14:14:00,57.6,15.6,30.06,SSW,201,3.0,6.3,19,0.00,,,-99.99,FreeWX-Wi 1.02,2013-01-12 22:14:00,
2013-01-12 14:19:00,57.4,15.4,30.06,SSW,194,4.0,6.3,19,0.00,,,-99.99,FreeWX-Wi 1.02,2013-01-12 22:19:00,
2013-01-12 14:24:00,57.2,15.3,30.06,SSW,194,4.0,7.2,19,0.00,,,-99.99,FreeWX-Wi 1.02,2013-01-12 22:24:00,
2013-01-12 14:29:00,57.4,15.4,30.09,SSW,192,4.0,8.7,19,0.00,,,-99.99,FreeWX-Wi 1.02,2013-01-12 22:29:00,
2013-01-12 14:34:00,57.4,15.4,30.09,South,191,4.0,6.3,19,0.00,,,-99.99,FreeWX-Wi 1.02,2013-01-12 22:34:00,
2013-01-12 14:39:00,57.4,15.4,30.09,South,190,4.0,8.1,19,0.00,,,-99.99,FreeWX-Wi 1.02,2013-01-12 22:39:00,
2013-01-12 14:44:00,57.4,15.4,30.06,SSW,193,4.0,6.3,19,0.00,,,-99.99,FreeWX-Wi 1.02,2013-01-12 22:44:00,
2013-01-12 14:49:00,57.4,15.4,30.06,SSW,202,4.0,6.3,19,0.00,,,-99.99,FreeWX-Wi 1.02,2013-01-12 22:49:00,
2013-01-12 14:54:00,57.2,15.3,30.06,SSW,205,4.0,8.1,19,0.00,,,-99.99,FreeWX-Wi 1.02,2013-01-12 22:54:00,
2013-01-12 14:59:00,57.2,15.3,30.06,SW,214,4.0,5.4,19,0.00,,,-99.99,FreeWX-Wi 1.02,2013-01-12 22:59:00,
2013-01-12 15:04:00,57.4,15.4,30.06,SSW,207,4.0,4.9,19,0.00,,,-99.99,FreeWX-Wi 1.02,2013-01-12 23:04:00,
2013-01-12 15:09:00,56.8,16.2,30.06,SSW,206,4.0,6.3,20,0.00,,,-99.99,FreeWX-Wi 1.02,2013-01-12 23:09:00,
2013-01-12 15:14:00,56.8,16.2,30.06,SSW,206,4.0,7.6,20,0.00,,,-99.99,FreeWX-Wi 1.02,2013-01-12 23:14:00,
2013-01-12 15:19:00,56.8,16.2,30.06,SSW,202,3.0,6.3,20,0.00,,,-99.99,FreeWX-Wi 1.02,2013-01-12 23:19:00,
2013-01-12 15:24:00,56.7,16.0,30.06,SSW,204,3.0,7.6,20,0.00,,,-99.99,FreeWX-Wi 1.02,2013-01-12 23:24:00,
2013-01-12 15:29:00,56.1,15.6,30.06,SSW,207,4.0,8.3,20,0.00,,,-99.99,FreeWX-Wi 1.02,2013-01-12 23:29:00,
2013-01-12 15:34:00,55.8,15.3,30.06,SSW,211,4.0,6.3,20,0.00,,,-99.99,FreeWX-Wi 1.02,2013-01-12 23:34:00,
2013-01-12 15:39:00,55.2,14.9,30.06,SW,219,4.0,5.8,20,0.00,,,-99.99,FreeWX-Wi 1.02,2013-01-12 23:39:00,
2013-01-12 15:44:00,54.5,14.2,30.06,SW,223,4.0,6.3,20,0.00,,,-99.99,FreeWX-Wi 1.02,2013-01-12 23:44:00,
2013-01-12 15:49:00,54.0,13.8,30.06,SW,224,4.0,8.3,20,0.00,,,-99.99,FreeWX-Wi 1.02,2013-01-12 23:49:00,
2013-01-12 15:54:00,53.4,14.5,30.06,SW,217,4.0,5.8,21,0.00,,,-99.99,FreeWX-Wi 1.02,2013-01-12 23:54:00,
2013-01-12 15:59:00,53.2,14.4,30.06,SW,214,4.0,6.3,21,0.00,,,-99.99,FreeWX-Wi 1.02,2013-01-12 23:59:00,
2013-01-12 16:04:00,52.7,13.8,30.06,SSW,211,4.0,5.8,21,0.00,,,-99.99,FreeWX-Wi 1.02,2013-01-13 00:04:00,
2013-01-12 16:09:00,52.2,13.5,30.06,SSW,210,4.0,7.2,21,0.00,,,-99.99,FreeWX-Wi 1.02,2013-01-13 00:09:00,
2013-01-12 16:14:00,51.8,13.1,30.06,SSW,208,4.0,6.3,21,0.00,,,-99.99,FreeWX-Wi 1.02,2013-01-13 00:14:00,
2013-01-12 16:19:00,51.1,12.6,30.06,SSW,208,4.0,4.9,21,0.00,,,-99.99,FreeWX-Wi 1.02,2013-01-13 00:19:00,
2013-01-12 16:24:00,50.5,9.9,30.06,SSW,206,4.0,6.3,19,0.00,,,-99.99,FreeWX-Wi 1.02,2013-01-13 00:24:00,
2013-01-12 16:29:00,49.5,9.0,30.06,SSW,203,3.0,4.0,19,0.00,,,-99.99,FreeWX-Wi 1.02,2013-01-13 00:29:00,
2013-01-12 16:34:00,48.9,8.4,30.06,SSW,201,3.0,4.0,19,0.00,,,-99.99,FreeWX-Wi 1.02,2013-01-13 00:34:00,
2013-01-12 16:39:00,47.5,7.3,30.06,SSW,195,2.0,0.0,19,0.00,,,-99.99,FreeWX-Wi 1.02,2013-01-13 00:39:00,
2013-01-12 16:44:00,46.0,7.2,30.06,South,191,2.0,0.0,20,0.00,,,-99.99,FreeWX-Wi 1.02,2013-01-13 00:44:00,
2013-01-12 16:49:00,44.8,6.3,30.06,South,187,1.0,0.0,20,0.00,,,-99.99,FreeWX-Wi 1.02,2013-01-13 00:49:00,
2013-01-12 16:54:00,44.2,5.7,30.06,North,-999,0.0,0.0,20,0.00,,,-99.99,FreeWX-Wi 1.02,2013-01-13 00:54:00,
2013-01-12 16:59:00,43.7,5.4,30.06,North,-999,0.0,0.0,20,0.00,,,-99.99,FreeWX-Wi 1.02,2013-01-13 00:59:00,
2013-01-12 17:04:00,43.3,5.0,30.06,North,-999,0.0,0.0,20,0.00,,,-99.99,FreeWX-Wi 1.02,2013-01-13 01:04:00,
2013-01-12 17:09:00,43.2,4.8,30.06,North,-999,0.0,0.0,20,0.00,,,-99.99,FreeWX-Wi 1.02,2013-01-13 01:09:00,
2013-01-12 17:14:00,42.8,4.5,30.06,North,-999,0.0,0.0,20,0.00,,,-99.99,FreeWX-Wi 1.02,2013-01-13 01:14:00,
2013-01-12 17:19:00,42.8,4.5,30.06,North,-999,0.0,0.0,20,0.00,,,-99.99,FreeWX-Wi 1.02,2013-01-13 01:19:00,
2013-01-12 17:24:00,42.8,4.5,30.06,North,-999,0.0,0.0,20,0.00,,,-99.99,FreeWX-Wi 1.02,2013-01-13 01:24:00,
2013-01-12 17:29:00,42.6,5.5,30.06,North,-999,0.0,0.0,21,0.00,,,-99.99,FreeWX-Wi 1.02,2013-01-13 01:29:00,
2013-01-12 17:34:00,42.6,5.5,30.06,North,-999,0.0,3.1,21,0.00,,,-99.99,FreeWX-Wi 1.02,2013-01-13 01:34:00,
2013-01-12 17:39:00,42.4,5.4,30.06,North,-999,0.0,0.0,21,0.00,,,-99.99,FreeWX-Wi 1.02,2013-01-13 01:39:00,
2013-01-12 17:44:00,42.4,5.4,30.06,North,-999,0.0,3.1,21,0.00,,,-99.99,FreeWX-Wi 1.02,2013-01-13 01:44:00,
2013-01-12 17:49:00,42.4,5.4,30.06,North,-999,0.0,2.7,21,0.00,,,-99.99,FreeWX-Wi 1.02,2013-01-13 01:49:00,
2013-01-12 17:54:00,42.3,5.2,30.06,North,-999,0.0,2.2,21,0.00,,,-99.99,FreeWX-Wi 1.02,2013-01-13 01:54:00,
2013-01-12 17:59:00,41.9,4.8,30.09,North,-999,0.0,0.0,21,0.00,,,-99.99,FreeWX-Wi 1.02,2013-01-13 01:59:00,
2013-01-12 18:04:00,41.5,4.5,30.09,North,-999,0.0,0.0,21,0.00,,,-99.99,FreeWX-Wi 1.02,2013-01-13 02:04:00,
2013-01-12 18:09:00,41.4,4.5,30.09,North,-999,0.0,0.0,21,0.00,,,-99.99,FreeWX-Wi 1.02,2013-01-13 02:09:00,
2013-01-12 18:15:00,41.2,4.3,30.06,North,-999,0.0,0.0,21,0.00,,,-99.99,FreeWX-Wi 1.02,2013-01-13 02:15:00,
2013-01-12 18:20:00,40.8,3.9,30.06,North,-999,0.0,0.0,21,0.00,,,-99.99,FreeWX-Wi 1.02,2013-01-13 02:20:00,
2013-01-12 18:25:00,40.6,3.7,30.06,North,-999,0.0,0.0,21,0.00,,,-99.99,FreeWX-Wi 1.02,2013-01-13 02:25:00,
2013-01-12 18:30:00,40.5,3.6,30.09,North,-999,0.0,0.0,21,0.00,,,-99.99,FreeWX-Wi 1.02,2013-01-13 02:30:00,
2013-01-12 18:35:00,40.3,3.6,30.09,North,-999,0.0,3.1,21,0.00,,,-99.99,FreeWX-Wi 1.02,2013-01-13 02:35:00,
2013-01-12 18:40:00,39.9,3.2,30.09,North,-999,0.0,0.0,21,0.00,,,-99.99,FreeWX-Wi 1.02,2013-01-13 02:40:00,
2013-01-12 18:45:00,39.6,2.8,30.06,North,-999,0.0,3.6,21,0.00,,,-99.99,FreeWX-Wi 1.02,2013-01-13 02:45:00,
2013-01-12 18:50:00,39.2,2.7,30.06,North,-999,0.0,2.7,21,0.00,,,-99.99,FreeWX-Wi 1.02,2013-01-13 02:50:00,
2013-01-12 18:55:00,39.4,2.7,30.06,North,-999,0.0,2.7,21,0.00,,,-99.99,FreeWX-Wi 1.02,2013-01-13 02:55:00,
2013-01-12 19:00:00,39.4,2.7,30.09,North,-999,0.0,0.0,21,0.00,,,-99.99,FreeWX-Wi 1.02,2013-01-13 03:00:00,
2013-01-12 19:05:00,39.2,2.7,30.09,North,-999,0.0,0.0,21,0.00,,,-99.99,FreeWX-Wi 1.02,2013-01-13 03:05:00,
2013-01-12 19:10:00,38.7,2.1,30.09,North,-999,0.0,0.0,21,0.00,,,-99.99,FreeWX-Wi 1.02,2013-01-13 03:10:00,
2013-01-12 19:15:00,38.5,1.9,30.09,North,-999,0.0,0.0,21,0.00,,,-99.99,FreeWX-Wi 1.02,2013-01-13 03:15:00,
2013-01-12 19:20:00,38.5,1.9,30.09,North,-999,0.0,0.0,21,0.00,,,-99.99,FreeWX-Wi 1.02,2013-01-13 03:20:00,
2013-01-12 19:25:00,38.7,2.1,30.09,North,-999,0.0,3.1,21,0.00,,,-99.99,FreeWX-Wi 1.02,2013-01-13 03:25:00,
2013-01-12 19:30:00,39.0,2.5,30.09,North,-999,0.0,3.1,21,0.00,,,-99.99,FreeWX-Wi 1.02,2013-01-13 03:30:00,
2013-01-12 19:35:00,39.6,2.8,30.09,South,186,1.0,3.1,21,0.00,,,-99.99,FreeWX-Wi 1.02,2013-01-13 03:35:00,
2013-01-12 19:40:00,39.6,2.8,30.09,South,186,1.0,3.1,21,0.00,,,-99.99,FreeWX-Wi 1.02,2013-01-13 03:40:00,
2013-01-12 19:45:00,39.4,2.7,30.09,South,186,1.0,3.1,21,0.00,,,-99.99,FreeWX-Wi 1.02,2013-01-13 03:45:00,
2013-01-12 19:50:00,39.7,3.0,30.09,South,186,2.0,3.6,21,0.00,,,-99.99,FreeWX-Wi 1.02,2013-01-13 03:50:00,
2013-01-12 19:55:00,39.9,3.2,30.09,South,185,2.0,4.5,21,0.00,,,-99.99,FreeWX-Wi 1.02,2013-01-13 03:55:00,
2013-01-12 20:00:00,39.6,2.8,30.06,South,183,2.0,4.0,21,0.00,,,-99.99,FreeWX-Wi 1.02,2013-01-13 04:00:00,
2013-01-12 20:05:00,39.7,3.0,30.06,South,182,2.0,3.6,21,0.00,,,-99.99,FreeWX-Wi 1.02,2013-01-13 04:05:00,
2013-01-12 20:10:00,39.7,3.0,30.06,South,180,2.0,3.1,21,0.00,,,-99.99,FreeWX-Wi 1.02,2013-01-13 04:10:00,
2013-01-12 20:15:00,38.8,2.3,30.09,South,178,2.0,0.0,21,0.00,,,-99.99,FreeWX-Wi 1.02,2013-01-13 04:15:00,
2013-01-12 20:20:00,38.1,1.8,30.09,South,177,1.0,2.2,21,0.00,,,-99.99,FreeWX-Wi 1.02,2013-01-13 04:20:00,
2013-01-12 20:25:00,37.2,1.9,30.09,South,176,1.0,4.0,22,0.00,,,-99.99,FreeWX-Wi 1.02,2013-01-13 04:25:00,
2013-01-12 20:30:00,36.7,1.4,30.09,South,177,1.0,2.7,22,0.00,,,-99.99,FreeWX-Wi 1.02,2013-01-13 04:30:00,
2013-01-12 20:35:00,35.8,0.7,30.09,North,-999,0.0,0.0,22,0.00,,,-99.99,FreeWX-Wi 1.02,2013-01-13 04:35:00,
2013-01-12 20:40:00,35.1,0.1,30.09,North,-999,0.0,0.0,22,0.00,,,-99.99,FreeWX-Wi 1.02,2013-01-13 04:40:00,
2013-01-12 20:45:00,34.7,-0.2,30.09,North,-999,0.0,0.0,22,0.00,,,-99.99,FreeWX-Wi 1.02,2013-01-13 04:45:00,
2013-01-12 20:50:00,34.7,-0.2,30.09,North,-999,0.0,2.7,22,0.00,,,-99.99,FreeWX-Wi 1.02,2013-01-13 04:50:00,
2013-01-12 20:55:00,34.5,-0.4,30.09,North,-999,0.0,0.0,22,0.00,,,-99.99,FreeWX-Wi 1.02,2013-01-13 04:55:00,
2013-01-12 21:00:00,34.5,-0.4,30.09,North,-999,0.0,2.7,22,0.00,,,-99.99,FreeWX-Wi 1.02,2013-01-13 05:00:00,
2013-01-12 21:05:00,34.5,-0.4,30.09,North,-999,0.0,2.7,22,0.00,,,-99.99,FreeWX-Wi 1.02,2013-01-13 05:05:00,
2013-01-12 21:10:00,34.9,0.0,30.09,North,-999,0.0,3.6,22,0.00,,,-99.99,FreeWX-Wi 1.02,2013-01-13 05:10:00,
2013-01-12 21:15:00,34.9,0.0,30.09,North,-999,0.0,3.1,22,0.00,,,-99.99,FreeWX-Wi 1.02,2013-01-13 05:15:00,
2013-01-12 21:20:00,34.7,-0.2,30.09,North,-999,0.0,2.7,22,0.00,,,-99.99,FreeWX-Wi 1.02,2013-01-13 05:20:00,
2013-01-12 21:25:00,34.5,-0.4,30.09,North,-999,0.0,4.0,22,0.00,,,-99.99,FreeWX-Wi 1.02,2013-01-13 05:25:00,
2013-01-12 21:30:00,35.2,0.3,30.09,North,-999,0.0,3.1,22,0.00,,,-99.99,FreeWX-Wi 1.02,2013-01-13 05:30:00,
2013-01-12 21:35:00,35.1,0.1,30.09,North,-999,0.0,2.7,22,0.00,,,-99.99,FreeWX-Wi 1.02,2013-01-13 05:35:00,
2013-01-12 21:40:00,34.9,0.0,30.09,North,-999,0.0,3.1,22,0.00,,,-99.99,FreeWX-Wi 1.02,2013-01-13 05:40:00,
2013-01-12 21:45:00,34.9,0.0,30.09,SSE,168,1.0,4.9,22,0.00,,,-99.99,FreeWX-Wi 1.02,2013-01-13 05:45:00,
2013-01-12 21:50:00,35.1,0.1,30.09,SSE,167,1.0,4.9,22,0.00,,,-99.99,FreeWX-Wi 1.02,2013-01-13 05:50:00,
2013-01-12 21:55:00,34.9,0.0,30.09,SSE,165,1.0,3.1,22,0.00,,,-99.99,FreeWX-Wi 1.02,2013-01-13 05:55:00,
2013-01-12 22:00:00,34.5,-0.4,30.09,SSE,163,1.0,3.6,22,0.00,,,-99.99,FreeWX-Wi 1.02,2013-01-13 06:00:00,
2013-01-12 22:05:00,34.7,-0.2,30.09,SSE,162,2.0,3.6,22,0.00,,,-99.99,FreeWX-Wi 1.02,2013-01-13 06:05:00,
2013-01-12 22:10:00,35.1,0.1,30.09,SSE,160,2.0,4.0,22,0.00,,,-99.99,FreeWX-Wi 1.02,2013-01-13 06:10:00,
2013-01-12 22:15:00,35.4,0.3,30.09,SSE,158,2.0,3.6,22,0.00,,,-99.99,FreeWX-Wi 1.02,2013-01-13 06:15:00,
2013-01-12 22:20:00,35.2,0.3,30.09,SSE,158,2.0,3.1,22,0.00,,,-99.99,FreeWX-Wi 1.02,2013-01-13 06:20:00,
2013-01-12 22:25:00,35.6,0.5,30.09,SSE,158,2.0,3.1,22,0.00,,,-99.99,FreeWX-Wi 1.02,2013-01-13 06:25:00,
2013-01-12 22:30:00,36.9,1.6,30.09,SSE,152,2.0,6.3,22,0.00,,,-99.99,FreeWX-Wi 1.02,2013-01-13 06:30:00,
2013-01-12 22:35:00,37.4,1.0,30.09,SE,136,2.0,5.8,21,0.00,,,-99.99,FreeWX-Wi 1.02,2013-01-13 06:35:00,
2013-01-12 22:40:00,37.6,1.2,30.09,ESE,109,2.0,4.0,21,0.00,,,-99.99,FreeWX-Wi 1.02,2013-01-13 06:40:00,
2013-01-12 22:45:00,37.2,1.9,30.09,East,79,2.0,4.0,22,0.00,,,-99.99,FreeWX-Wi 1.02,2013-01-13 06:45:00,
2013-01-12 22:50:00,37.2,1.9,30.09,ENE,58,2.0,4.0,22,0.00,,,-99.99,FreeWX-Wi 1.02,2013-01-13 06:50:00,
2013-01-12 22:55:00,37.0,1.8,30.09,NE,46,2.0,3.6,22,0.00,,,-99.99,FreeWX-Wi 1.02,2013-01-13 06:55:00,
2013-01-12 23:00:00,36.7,1.4,30.09,NE,47,2.0,3.1,22,0.00,,,-99.99,FreeWX-Wi 1.02,2013-01-13 07:00:00,
2013-01-12 23:05:00,35.8,0.7,30.09,NE,49,2.0,4.0,22,0.00,,,-99.99,FreeWX-Wi 1.02,2013-01-13 07:05:00,
2013-01-12 23:10:00,36.5,1.4,30.09,NE,48,2.0,4.9,22,0.00,,,-99.99,FreeWX-Wi 1.02,2013-01-13 07:10:00,
2013-01-12 23:15:00,36.7,1.4,30.09,NE,47,2.0,4.0,22,0.00,,,-99.99,FreeWX-Wi 1.02,2013-01-13 07:15:00,
2013-01-12 23:20:00,37.0,1.8,30.09,NE,45,3.0,7.6,22,0.00,,,-99.99,FreeWX-Wi 1.02,2013-01-13 07:20:00,
2013-01-12 23:25:00,37.8,1.4,30.09,NE,42,3.0,7.6,21,0.00,,,-99.99,FreeWX-Wi 1.02,2013-01-13 07:25:00,
2013-01-12 23:30:00,38.1,1.8,30.09,NE,40,3.0,6.3,21,0.00,,,-99.99,FreeWX-Wi 1.02,2013-01-13 07:30:00,
2013-01-12 23:35:00,38.3,1.8,30.09,NE,37,4.0,5.8,21,0.00,,,-99.99,FreeWX-Wi 1.02,2013-01-13 07:35:00,
2013-01-12 23:40:00,38.1,1.8,30.09,NE,35,4.0,8.3,21,0.00,,,-99.99,FreeWX-Wi 1.02,2013-01-13 07:40:00,
2013-01-12 23:45:00,39.0,2.5,30.09,NNE,31,4.0,8.1,21,0.00,,,-99.99,FreeWX-Wi 1.02,2013-01-13 07:45:00,
2013-01-12 23:50:00,39.2,2.7,30.09,NNE,28,4.0,8.1,21,0.00,,,-99.99,FreeWX-Wi 1.02,2013-01-13 07:50:00,
2013-01-12 23:55:00,39.4,2.7,30.09,NNE,25,4.0,8.1,21,0.00,,,-99.99,FreeWX-Wi 1.02,2013-01-13 07:55:00,